Time;durP1;ratioP1;P1;durP2;ratioP2;P2;SDS_P1;SDS_P2;PMS_P1;PMS_P2;Temp;Humidity;BMP_temperature;BMP_pressure;BME280_temperature;BME280_humidity;BME280_pressure;Samples;Min_cycle;Max_cycle;Signal;HPM_P1;HPM_P2
2022/04/07 00:00:20;;;;;;;1.80;1.40;;;;;;;;;;4929471;29;20216;-58
2022/04/07 00:02:48;;;;;;;1.50;1.40;;;;;;;;;;4937950;29;20215;-58
2022/04/07 00:05:15;;;;;;;1.57;1.47;;;;;;;;;;4942580;29;20236;-57
2022/04/07 00:07:42;;;;;;;1.40;1.40;;;;;;;;;;4944039;29;20215;-57
2022/04/07 00:10:09;;;;;;;2.03;1.80;;;;;;;;;;4941912;29;20204;-57
2022/04/07 00:12:37;;;;;;;1.40;1.23;;;;;;;;;;4943725;29;20263;-58
2022/04/07 00:15:04;;;;;;;1.37;1.37;;;;;;;;;;4948941;28;20203;-57
2022/04/07 00:17:32;;;;;;;1.70;1.60;;;;;;;;;;4951825;29;20690;-58
2022/04/07 00:20:00;;;;;;;2.83;1.67;;;;;;;;;;4950127;29;20207;-58
2022/04/07 00:22:27;;;;;;;2.57;1.50;;;;;;;;;;4952524;29;20207;-58
2022/04/07 00:24:54;;;;;;;1.80;1.47;;;;;;;;;;4950372;29;20705;-57
2022/04/07 00:27:21;;;;;;;2.53;1.30;;;;;;;;;;4952165;29;20215;-60
2022/04/07 00:29:48;;;;;;;1.13;1.07;;;;;;;;;;4951729;29;20649;-59
2022/04/07 00:32:15;;;;;;;3.40;1.60;;;;;;;;;;4951230;29;20211;-58
2022/04/07 00:34:46;;;;;;;3.47;1.27;;;;;;;;;;4933560;29;20577;-58
2022/04/07 00:37:14;;;;;;;1.20;1.20;;;;;;;;;;4933682;29;20266;-58
2022/04/07 00:39:41;;;;;;;1.47;1.40;;;;;;;;;;4945744;29;20211;-58
2022/04/07 00:42:09;;;;;;;1.37;1.33;;;;;;;;;;4952073;29;20576;-58
2022/04/07 00:44:36;;;;;;;3.23;1.30;;;;;;;;;;4951709;29;20223;-58
2022/04/07 00:47:03;;;;;;;1.00;1.00;;;;;;;;;;4950639;29;20215;-58
2022/04/07 00:49:30;;;;;;;1.17;1.17;;;;;;;;;;4943877;29;20593;-58
2022/04/07 00:51:57;;;;;;;1.30;1.03;;;;;;;;;;4933352;29;20271;-58
2022/04/07 00:54:25;;;;;;;2.40;1.10;;;;;;;;;;4948941;29;20203;-58
2022/04/07 00:56:53;;;;;;;1.10;1.00;;;;;;;;;;4936730;29;20627;-58
2022/04/07 00:59:20;;;;;;;1.47;1.03;;;;;;;;;;4938795;29;20263;-58
2022/04/07 01:01:47;;;;;;;2.47;1.30;;;;;;;;;;4950347;29;20274;-58
2022/04/07 01:04:15;;;;;;;1.23;1.07;;;;;;;;;;4950186;29;20234;-58
2022/04/07 01:06:42;;;;;;;1.20;1.20;;;;;;;;;;4940161;29;20216;-57
2022/04/07 01:09:10;;;;;;;2.30;0.80;;;;;;;;;;4932912;29;20306;-58
2022/04/07 01:11:38;;;;;;;0.90;0.90;;;;;;;;;;4951723;29;20207;-57
2022/04/07 01:14:06;;;;;;;5.20;1.07;;;;;;;;;;4952025;29;20329;-58
2022/04/07 01:16:34;;;;;;;1.10;1.10;;;;;;;;;;4951859;29;20211;-58
2022/04/07 01:19:01;;;;;;;1.00;1.00;;;;;;;;;;4932319;29;20228;-58
2022/04/07 01:21:30;;;;;;;1.20;1.10;;;;;;;;;;4947407;29;20286;-57
2022/04/07 01:24:01;;;;;;;1.20;1.10;;;;;;;;;;4950850;29;20706;-58
2022/04/07 01:26:30;;;;;;;0.93;0.93;;;;;;;;;;4945678;28;20350;-58
2022/04/07 01:28:57;;;;;;;0.70;0.70;;;;;;;;;;4932147;29;20247;-58
2022/04/07 01:31:24;;;;;;;1.17;1.17;;;;;;;;;;4944012;29;20208;-58
2022/04/07 01:33:51;;;;;;;0.87;0.87;;;;;;;;;;4934178;29;20690;-58
2022/04/07 01:36:19;;;;;;;0.97;0.83;;;;;;;;;;4947514;29;20211;-58
2022/04/07 01:38:46;;;;;;;1.00;1.00;;;;;;;;;;4950779;29;20219;-58
2022/04/07 01:41:14;;;;;;;1.43;0.70;;;;;;;;;;4943687;29;20280;-58
2022/04/07 01:43:43;;;;;;;0.60;0.60;;;;;;;;;;4934320;29;20302;-58
2022/04/07 01:46:12;;;;;;;0.93;0.70;;;;;;;;;;4942503;29;20267;-58
2022/04/07 01:48:39;;;;;;;0.67;0.67;;;;;;;;;;4931440;29;20302;-58
2022/04/07 01:51:06;;;;;;;0.67;0.67;;;;;;;;;;4935549;29;20547;-58
2022/04/07 01:53:33;;;;;;;0.63;0.63;;;;;;;;;;4935376;29;20211;-58
2022/04/07 01:56:00;;;;;;;0.80;0.80;;;;;;;;;;4931164;29;20233;-57
2022/04/07 01:58:28;;;;;;;0.70;0.70;;;;;;;;;;4931686;29;20227;-58
2022/04/07 02:00:57;;;;;;;0.60;0.60;;;;;;;;;;4942061;29;20302;-58
2022/04/07 02:03:24;;;;;;;1.07;0.80;;;;;;;;;;4950515;29;20215;-58
2022/04/07 02:05:51;;;;;;;1.80;0.90;;;;;;;;;;4950006;29;21061;-58
2022/04/07 02:08:18;;;;;;;1.00;1.00;;;;;;;;;;4948876;29;20215;-58
2022/04/07 02:10:45;;;;;;;1.23;0.73;;;;;;;;;;4950147;29;20258;-58
2022/04/07 02:13:13;;;;;;;0.60;0.60;;;;;;;;;;4931539;29;20707;-58
2022/04/07 02:15:40;;;;;;;0.60;0.60;;;;;;;;;;4943896;29;20211;-58
2022/04/07 02:18:08;;;;;;;0.60;0.60;;;;;;;;;;4950400;29;20714;-58
2022/04/07 02:20:36;;;;;;;0.90;0.90;;;;;;;;;;4943281;29;20204;-58
2022/04/07 02:23:03;;;;;;;0.73;0.73;;;;;;;;;;4932081;29;20204;-59
2022/04/07 02:25:30;;;;;;;1.87;1.00;;;;;;;;;;4940354;29;20231;-59
2022/04/07 02:27:57;;;;;;;0.70;0.70;;;;;;;;;;4949381;29;20239;-59
2022/04/07 02:30:24;;;;;;;0.90;0.90;;;;;;;;;;4950415;29;20211;-57
2022/04/07 02:32:51;;;;;;;0.90;0.90;;;;;;;;;;4939429;29;20211;-58
2022/04/07 02:35:19;;;;;;;0.80;0.80;;;;;;;;;;4931135;29;20212;-59
2022/04/07 02:37:46;;;;;;;0.83;0.83;;;;;;;;;;4930504;29;20216;-59
2022/04/07 02:40:13;;;;;;;1.07;0.90;;;;;;;;;;4949386;29;20207;-58
2022/04/07 02:42:40;;;;;;;0.83;0.67;;;;;;;;;;4941156;29;20683;-59
2022/04/07 02:45:08;;;;;;;0.70;0.70;;;;;;;;;;4949248;29;20289;-58
2022/04/07 02:47:38;;;;;;;1.37;0.60;;;;;;;;;;4950115;29;20210;-58
2022/04/07 02:50:06;;;;;;;0.87;0.87;;;;;;;;;;4937499;29;20215;-58
2022/04/07 02:52:34;;;;;;;0.47;0.47;;;;;;;;;;4948058;29;20270;-58
2022/04/07 02:55:01;;;;;;;1.03;0.60;;;;;;;;;;4949829;29;20203;-58
2022/04/07 02:57:30;;;;;;;0.60;0.60;;;;;;;;;;4950050;29;20215;-58
2022/04/07 02:59:58;;;;;;;0.50;0.50;;;;;;;;;;4949019;29;20207;-58
2022/04/07 03:02:25;;;;;;;0.53;0.53;;;;;;;;;;4947793;29;20311;-58
2022/04/07 03:04:53;;;;;;;0.50;0.50;;;;;;;;;;4930591;29;20231;-58
2022/04/07 03:07:20;;;;;;;0.73;0.73;;;;;;;;;;4942071;29;20202;-58
2022/04/07 03:09:49;;;;;;;0.60;0.60;;;;;;;;;;4949928;29;20756;-58
2022/04/07 03:12:16;;;;;;;0.73;0.70;;;;;;;;;;4943531;29;20298;-58
2022/04/07 03:14:43;;;;;;;0.60;0.60;;;;;;;;;;4938518;29;20238;-58
2022/04/07 03:17:10;;;;;;;2.37;0.60;;;;;;;;;;4939288;29;20215;-58
2022/04/07 03:19:37;;;;;;;0.57;0.57;;;;;;;;;;4945199;29;20490;-58
2022/04/07 03:22:04;;;;;;;0.70;0.70;;;;;;;;;;4949434;29;20218;-58
2022/04/07 03:24:31;;;;;;;0.53;0.53;;;;;;;;;;4931291;29;20290;-58
2022/04/07 03:27:01;;;;;;;0.60;0.50;;;;;;;;;;4935808;29;20317;-58
2022/04/07 03:29:30;;;;;;;0.60;0.60;;;;;;;;;;4948705;29;20238;-58
2022/04/07 03:31:57;;;;;;;0.50;0.50;;;;;;;;;;4949846;29;20215;-58
2022/04/07 03:34:24;;;;;;;0.43;0.43;;;;;;;;;;4950030;29;20211;-58
2022/04/07 03:36:52;;;;;;;0.50;0.50;;;;;;;;;;4949632;29;20233;-58
2022/04/07 03:39:19;;;;;;;1.30;0.50;;;;;;;;;;4949589;29;20258;-59
2022/04/07 03:41:46;;;;;;;0.70;0.70;;;;;;;;;;4949596;29;20219;-58
2022/04/07 03:44:14;;;;;;;0.50;0.50;;;;;;;;;;4934734;29;20207;-58
2022/04/07 03:46:41;;;;;;;0.60;0.60;;;;;;;;;;4942733;29;20287;-59
2022/04/07 03:49:08;;;;;;;1.07;0.60;;;;;;;;;;4932020;29;20215;-58
2022/04/07 03:51:35;;;;;;;1.77;0.63;;;;;;;;;;4935034;29;20618;-58
2022/04/07 03:54:02;;;;;;;0.70;0.70;;;;;;;;;;4935546;29;20216;-58
2022/04/07 03:56:29;;;;;;;0.53;0.53;;;;;;;;;;4934555;29;20262;-58
2022/04/07 03:58:58;;;;;;;0.50;0.50;;;;;;;;;;4934337;29;20274;-58
2022/04/07 04:01:26;;;;;;;0.70;0.70;;;;;;;;;;4946655;29;20226;-58
2022/04/07 04:03:53;;;;;;;0.60;0.60;;;;;;;;;;4945068;29;20218;-58
2022/04/07 04:06:21;;;;;;;0.60;0.60;;;;;;;;;;4946381;29;20667;-58
2022/04/07 04:08:48;;;;;;;0.73;0.50;;;;;;;;;;4952468;29;20211;-58
2022/04/07 04:11:15;;;;;;;0.67;0.60;;;;;;;;;;4944012;29;20674;-58
2022/04/07 04:13:42;;;;;;;0.40;0.40;;;;;;;;;;4931592;29;20307;-58
2022/04/07 04:16:09;;;;;;;0.50;0.50;;;;;;;;;;4948615;29;20243;-58
2022/04/07 04:18:38;;;;;;;0.53;0.53;;;;;;;;;;4950513;29;20289;-59
2022/04/07 04:21:05;;;;;;;0.77;0.77;;;;;;;;;;4952288;29;20210;-58
2022/04/07 04:23:32;;;;;;;0.40;0.40;;;;;;;;;;4943024;29;20622;-59
2022/04/07 04:25:59;;;;;;;0.67;0.67;;;;;;;;;;4950591;29;20239;-59
2022/04/07 04:28:26;;;;;;;0.50;0.50;;;;;;;;;;4947505;29;20247;-58
2022/04/07 04:30:54;;;;;;;0.30;0.30;;;;;;;;;;4950523;29;20732;-58
2022/04/07 04:33:21;;;;;;;0.40;0.40;;;;;;;;;;4942030;29;20240;-58
2022/04/07 04:35:49;;;;;;;0.40;0.40;;;;;;;;;;4933080;29;20271;-59
2022/04/07 04:38:16;;;;;;;0.60;0.60;;;;;;;;;;4942118;29;20211;-58
2022/04/07 04:40:43;;;;;;;2.00;0.50;;;;;;;;;;4952320;29;20226;-59
2022/04/07 04:43:10;;;;;;;0.40;0.40;;;;;;;;;;4951594;29;20218;-58
2022/04/07 04:45:37;;;;;;;0.60;0.60;;;;;;;;;;4951730;29;20235;-58
2022/04/07 04:48:05;;;;;;;1.13;0.50;;;;;;;;;;4951107;29;20290;-58
2022/04/07 04:50:32;;;;;;;0.40;0.40;;;;;;;;;;4952090;29;20218;-59
2022/04/07 04:53:00;;;;;;;0.60;0.50;;;;;;;;;;4951540;29;20211;-58
2022/04/07 04:55:27;;;;;;;0.53;0.53;;;;;;;;;;4950681;29;20637;-59
2022/04/07 04:57:54;;;;;;;1.43;0.50;;;;;;;;;;4950310;29;20219;-58
2022/04/07 05:00:21;;;;;;;0.60;0.60;;;;;;;;;;4932618;29;20266;-59
2022/04/07 05:02:48;;;;;;;0.50;0.50;;;;;;;;;;4932779;29;20223;-59
2022/04/07 05:05:15;;;;;;;0.33;0.33;;;;;;;;;;4941957;29;20207;-58
2022/04/07 05:07:42;;;;;;;0.50;0.50;;;;;;;;;;4932260;29;20268;-58
2022/04/07 05:10:11;;;;;;;1.27;0.60;;;;;;;;;;4939239;29;20540;-58
2022/04/07 05:12:38;;;;;;;0.50;0.50;;;;;;;;;;4947891;29;20222;-59
2022/04/07 05:15:06;;;;;;;0.50;0.50;;;;;;;;;;4947751;29;20277;-58
2022/04/07 05:17:33;;;;;;;0.50;0.50;;;;;;;;;;4950968;29;20214;-58
2022/04/07 05:20:00;;;;;;;0.30;0.30;;;;;;;;;;4938946;29;20216;-58
2022/04/07 05:22:29;;;;;;;0.40;0.40;;;;;;;;;;4932099;29;20588;-59
2022/04/07 05:24:56;;;;;;;0.27;0.27;;;;;;;;;;4941998;29;20713;-59
2022/04/07 05:27:25;;;;;;;0.37;0.37;;;;;;;;;;4937271;29;20464;-59
2022/04/07 05:29:52;;;;;;;0.20;0.20;;;;;;;;;;4941509;29;20293;-59
2022/04/07 05:32:19;;;;;;;0.30;0.30;;;;;;;;;;4952004;29;20274;-59
2022/04/07 05:34:46;;;;;;;0.37;0.37;;;;;;;;;;4951673;29;20211;-58
2022/04/07 05:37:13;;;;;;;2.83;0.40;;;;;;;;;;4951443;29;20214;-58
2022/04/07 05:39:40;;;;;;;0.83;0.30;;;;;;;;;;4946446;29;20241;-59
2022/04/07 05:42:07;;;;;;;1.13;0.50;;;;;;;;;;4932591;29;20740;-61
2022/04/07 05:44:36;;;;;;;0.20;0.20;;;;;;;;;;4940612;29;20234;-59
2022/04/07 05:47:03;;;;;;;0.30;0.30;;;;;;;;;;4933219;29;20286;-59
2022/04/07 05:49:30;;;;;;;0.30;0.30;;;;;;;;;;4933118;29;20693;-60
2022/04/07 05:52:00;;;;;;;0.10;0.10;;;;;;;;;;4950889;29;20214;-58
2022/04/07 05:54:27;;;;;;;0.10;0.10;;;;;;;;;;4943923;29;20215;-58
2022/04/07 05:56:55;;;;;;;0.07;0.07;;;;;;;;;;4931589;29;20215;-57
2022/04/07 05:59:22;;;;;;;0.20;0.20;;;;;;;;;;4932298;29;20465;-58
2022/04/07 06:01:50;;;;;;;0.57;0.20;;;;;;;;;;4948152;29;20690;-58
2022/04/07 06:04:17;;;;;;;4.03;0.40;;;;;;;;;;4944955;29;20667;-58
2022/04/07 06:06:44;;;;;;;0.20;0.20;;;;;;;;;;4932000;29;20227;-57
2022/04/07 06:09:12;;;;;;;0.10;0.10;;;;;;;;;;4942339;29;20212;-58
2022/04/07 06:11:39;;;;;;;0.20;0.20;;;;;;;;;;4931736;29;20234;-58
2022/04/07 06:14:06;;;;;;;0.10;0.10;;;;;;;;;;4937942;29;20274;-58
2022/04/07 06:16:33;;;;;;;0.73;0.30;;;;;;;;;;4950356;29;20250;-57
2022/04/07 06:19:01;;;;;;;0.77;0.30;;;;;;;;;;4946113;29;20219;-57
2022/04/07 06:21:29;;;;;;;0.27;0.20;;;;;;;;;;4936484;29;20267;-58
2022/04/07 06:23:57;;;;;;;0.20;0.20;;;;;;;;;;4931663;29;20214;-58
2022/04/07 06:26:24;;;;;;;0.17;0.17;;;;;;;;;;4933793;29;20231;-58
2022/04/07 06:28:51;;;;;;;0.20;0.20;;;;;;;;;;4949336;29;20246;-58
2022/04/07 06:31:18;;;;;;;0.30;0.30;;;;;;;;;;4948689;29;20724;-58
2022/04/07 06:33:45;;;;;;;0.83;0.23;;;;;;;;;;4950485;29;20211;-58
2022/04/07 06:36:13;;;;;;;0.20;0.20;;;;;;;;;;4950073;29;20306;-58
2022/04/07 06:38:40;;;;;;;0.30;0.30;;;;;;;;;;4950767;29;20625;-58
2022/04/07 06:41:08;;;;;;;0.53;0.30;;;;;;;;;;4947349;29;20211;-58
2022/04/07 06:43:35;;;;;;;0.67;0.40;;;;;;;;;;4950749;29;20230;-58
2022/04/07 06:46:02;;;;;;;0.13;0.13;;;;;;;;;;4950184;29;20555;-58
2022/04/07 06:48:29;;;;;;;0.20;0.20;;;;;;;;;;4950882;29;20254;-58
2022/04/07 06:50:56;;;;;;;0.20;0.20;;;;;;;;;;4941436;29;20606;-58
2022/04/07 06:53:24;;;;;;;0.60;0.30;;;;;;;;;;4931479;29;20435;-58
2022/04/07 06:55:51;;;;;;;0.67;0.40;;;;;;;;;;4939550;29;20215;-58
2022/04/07 06:58:19;;;;;;;0.20;0.13;;;;;;;;;;4950549;29;20215;-58
2022/04/07 07:00:46;;;;;;;0.10;0.10;;;;;;;;;;4949769;29;20666;-58
2022/04/07 07:03:15;;;;;;;0.20;0.20;;;;;;;;;;4947111;29;20677;-58
2022/04/07 07:05:42;;;;;;;0.53;0.10;;;;;;;;;;4946597;29;20210;-58
2022/04/07 07:08:13;;;;;;;0.63;0.03;;;;;;;;;;4929262;29;20544;-60
2022/04/07 07:10:42;;;;;;;0.20;0.20;;;;;;;;;;4932841;29;20721;-58
2022/04/07 07:13:09;;;;;;;0.50;0.10;;;;;;;;;;4931884;29;20211;-58
2022/04/07 07:15:36;;;;;;;0.10;0.10;;;;;;;;;;4944690;29;20222;-59
2022/04/07 07:18:03;;;;;;;0.10;0.10;;;;;;;;;;4939872;29;20211;-59
2022/04/07 07:20:30;;;;;;;0.10;0.10;;;;;;;;;;4944729;29;20204;-59
2022/04/07 07:22:57;;;;;;;0.00;0.00;;;;;;;;;;4932492;29;20223;-58
2022/04/07 07:25:24;;;;;;;0.00;0.00;;;;;;;;;;4948311;29;20668;-59
2022/04/07 07:27:53;;;;;;;0.20;0.10;;;;;;;;;;4940286;29;20238;-59
2022/04/07 07:30:20;;;;;;;0.57;0.20;;;;;;;;;;4945032;29;20728;-59
2022/04/07 07:32:47;;;;;;;0.10;0.10;;;;;;;;;;4969466;28;20210;-59
2022/04/07 07:35:17;;;;;;;0.63;0.10;;;;;;;;;;4942455;28;20262;-59
2022/04/07 07:37:50;;;;;;;0.10;0.10;;;;;;;;;;4951927;29;20669;-59
2022/04/07 07:40:18;;;;;;;0.10;0.10;;;;;;;;;;4953982;29;20232;-59
2022/04/07 07:42:45;;;;;;;0.10;0.10;;;;;;;;;;4938583;29;20208;-59
2022/04/07 07:45:13;;;;;;;0.03;0.00;;;;;;;;;;4941716;29;20223;-59
2022/04/07 07:47:40;;;;;;;0.07;0.07;;;;;;;;;;4953000;29;20236;-59
2022/04/07 07:50:08;;;;;;;0.00;0.00;;;;;;;;;;4953998;29;20576;-59
2022/04/07 07:52:35;;;;;;;1.60;0.10;;;;;;;;;;4947292;29;20577;-58
2022/04/07 07:55:02;;;;;;;0.00;0.00;;;;;;;;;;4935205;29;20224;-58
2022/04/07 07:57:29;;;;;;;0.10;0.10;;;;;;;;;;4940875;29;20294;-58
2022/04/07 07:59:57;;;;;;;0.20;0.20;;;;;;;;;;4952016;29;20211;-58
2022/04/07 08:02:26;;;;;;;0.20;0.20;;;;;;;;;;4953703;29;20646;-59
2022/04/07 08:04:53;;;;;;;0.20;0.20;;;;;;;;;;4953559;29;20215;-59
2022/04/07 08:07:21;;;;;;;0.20;0.10;;;;;;;;;;4952120;29;20318;-59
2022/04/07 08:09:49;;;;;;;0.10;0.10;;;;;;;;;;4949151;29;20262;-59
2022/04/07 08:12:16;;;;;;;0.10;0.10;;;;;;;;;;4953350;28;20298;-59
2022/04/07 08:14:44;;;;;;;2.00;0.17;;;;;;;;;;4955147;28;20745;-58
2022/04/07 08:17:11;;;;;;;0.43;0.20;;;;;;;;;;4963339;28;21642;-59
2022/04/07 08:19:40;;;;;;;0.00;0.00;;;;;;;;;;4957955;28;20717;-59
2022/04/07 08:22:07;;;;;;;0.10;0.10;;;;;;;;;;4957078;28;20303;-58
2022/04/07 08:24:35;;;;;;;0.20;0.20;;;;;;;;;;4961174;28;20302;-58
2022/04/07 08:27:02;;;;;;;0.10;0.10;;;;;;;;;;4959410;28;20253;-58
2022/04/07 08:29:32;;;;;;;1.40;0.10;;;;;;;;;;4960997;28;20239;-58
2022/04/07 08:31:59;;;;;;;0.10;0.10;;;;;;;;;;4962283;28;20210;-58
2022/04/07 08:34:26;;;;;;;0.20;0.20;;;;;;;;;;4959324;28;20215;-57
2022/04/07 08:36:55;;;;;;;0.20;0.20;;;;;;;;;;4962331;28;20206;-57
2022/04/07 08:39:22;;;;;;;0.00;0.00;;;;;;;;;;4960626;28;20214;-57
2022/04/07 08:41:50;;;;;;;0.10;0.10;;;;;;;;;;4962749;28;20211;-58
2022/04/07 08:44:17;;;;;;;0.10;0.10;;;;;;;;;;4961948;28;20211;-57
2022/04/07 08:46:49;;;;;;;0.50;0.10;;;;;;;;;;4962104;28;20714;-58
2022/04/07 08:49:17;;;;;;;0.10;0.10;;;;;;;;;;4959211;28;20207;-57
2022/04/07 08:51:45;;;;;;;0.10;0.10;;;;;;;;;;4959001;28;20229;-57
2022/04/07 08:54:14;;;;;;;1.07;0.10;;;;;;;;;;4958378;28;20230;-58
2022/04/07 08:56:41;;;;;;;1.27;0.10;;;;;;;;;;4961936;28;20602;-58
2022/04/07 08:59:08;;;;;;;0.27;0.27;;;;;;;;;;4957880;28;20208;-58
2022/04/07 09:01:35;;;;;;;0.20;0.20;;;;;;;;;;4939506;29;20203;-60
2022/04/07 09:04:02;;;;;;;0.57;0.20;;;;;;;;;;4941060;29;20222;-58
2022/04/07 09:06:29;;;;;;;0.10;0.10;;;;;;;;;;4934040;29;20210;-58
2022/04/07 09:08:56;;;;;;;0.10;0.10;;;;;;;;;;4943009;29;20231;-58
2022/04/07 09:11:25;;;;;;;2.00;0.30;;;;;;;;;;4946140;29;20215;-58
2022/04/07 09:13:54;;;;;;;0.30;0.30;;;;;;;;;;4950363;29;20416;-59
2022/04/07 09:16:22;;;;;;;0.13;0.13;;;;;;;;;;4940356;29;20663;-58
2022/04/07 09:18:49;;;;;;;0.20;0.20;;;;;;;;;;4947116;29;20888;-59
2022/04/07 09:21:19;;;;;;;0.20;0.20;;;;;;;;;;4954294;28;20219;-59
2022/04/07 09:23:46;;;;;;;0.10;0.10;;;;;;;;;;4934072;29;20697;-59
2022/04/07 09:26:14;;;;;;;0.10;0.10;;;;;;;;;;4929596;29;20243;-59
2022/04/07 09:28:44;;;;;;;0.10;0.10;;;;;;;;;;4929334;29;20789;-59
2022/04/07 09:31:13;;;;;;;0.33;0.10;;;;;;;;;;4933712;29;20585;-59
2022/04/07 09:33:40;;;;;;;0.30;0.30;;;;;;;;;;4944940;29;20681;-59
2022/04/07 09:36:08;;;;;;;0.20;0.20;;;;;;;;;;4948645;29;20215;-59
2022/04/07 09:38:36;;;;;;;0.17;0.17;;;;;;;;;;4945678;29;20306;-59
2022/04/07 09:41:06;;;;;;;0.10;0.10;;;;;;;;;;4929792;29;20215;-58
2022/04/07 09:43:45;;;;;;;0.10;0.10;;;;;;;;;;4934036;29;20210;-59
2022/04/07 09:46:12;;;;;;;0.00;0.00;;;;;;;;;;4947362;28;20219;-58
2022/04/07 09:48:40;;;;;;;0.10;0.10;;;;;;;;;;4933559;29;20227;-59
2022/04/07 09:51:07;;;;;;;0.00;0.00;;;;;;;;;;4929175;29;20310;-59
2022/04/07 09:53:38;;;;;;;0.40;0.13;;;;;;;;;;4937987;29;20263;-59
2022/04/07 09:56:06;;;;;;;0.20;0.20;;;;;;;;;;4941768;29;20208;-59
2022/04/07 09:58:33;;;;;;;0.20;0.10;;;;;;;;;;4929360;29;20927;-58
2022/04/07 10:01:03;;;;;;;0.00;0.00;;;;;;;;;;4945995;29;20243;-58
2022/04/07 10:03:31;;;;;;;0.20;0.07;;;;;;;;;;4946814;29;20214;-59
2022/04/07 10:05:59;;;;;;;0.03;0.03;;;;;;;;;;4941043;29;20307;-59
2022/04/07 10:08:26;;;;;;;0.00;0.00;;;;;;;;;;4927002;29;20715;-60
2022/04/07 10:10:53;;;;;;;0.97;0.10;;;;;;;;;;4927247;29;20306;-58
2022/04/07 10:13:20;;;;;;;0.67;0.20;;;;;;;;;;4933545;29;20557;-58
2022/04/07 10:15:48;;;;;;;0.10;0.10;;;;;;;;;;4932649;29;20310;-61
2022/04/07 10:18:22;;;;;;;0.10;0.10;;;;;;;;;;4945579;29;20634;-58
2022/04/07 10:20:50;;;;;;;0.10;0.10;;;;;;;;;;4930451;29;20219;-59
2022/04/07 10:23:24;;;;;;;0.00;0.00;;;;;;;;;;4934188;29;20218;-59
2022/04/07 10:25:52;;;;;;;0.87;0.10;;;;;;;;;;4934111;29;20255;-59
2022/04/07 10:28:20;;;;;;;0.10;0.10;;;;;;;;;;4934678;29;20248;-59
2022/04/07 10:30:48;;;;;;;0.50;0.30;;;;;;;;;;4938401;29;20211;-58
2022/04/07 10:33:30;;;;;;;0.20;0.20;;;;;;;;;;4926460;29;20246;-59
2022/04/07 10:35:58;;;;;;;0.20;0.10;;;;;;;;;;4935349;29;20321;-58
2022/04/07 10:38:36;;;;;;;0.83;0.33;;;;;;;;;;4942076;28;20583;-59
2022/04/07 10:41:04;;;;;;;0.63;0.63;;;;;;;;;;4936879;28;20230;-59
2022/04/07 10:43:31;;;;;;;0.73;0.70;;;;;;;;;;4947479;29;20215;-58
2022/04/07 10:46:11;;;;;;;0.47;0.20;;;;;;;;;;4944879;29;20215;-59
2022/04/07 10:48:39;;;;;;;0.10;0.10;;;;;;;;;;4939459;29;20227;-59
2022/04/07 10:51:08;;;;;;;0.20;0.20;;;;;;;;;;4942716;29;20223;-59
2022/04/07 10:53:36;;;;;;;0.10;0.10;;;;;;;;;;4946153;29;20226;-59
2022/04/07 10:56:06;;;;;;;0.10;0.10;;;;;;;;;;4935584;29;20289;-59
2022/04/07 10:58:43;;;;;;;0.00;0.00;;;;;;;;;;4932586;29;20282;-58
2022/04/07 11:01:14;;;;;;;0.30;0.00;;;;;;;;;;4938966;29;20210;-58
2022/04/07 11:03:42;;;;;;;0.07;0.07;;;;;;;;;;4944187;29;20298;-59
2022/04/07 11:06:11;;;;;;;0.00;0.00;;;;;;;;;;4932231;29;20215;-58
2022/04/07 11:08:38;;;;;;;0.10;0.10;;;;;;;;;;4944493;29;20330;-59
2022/04/07 11:11:06;;;;;;;0.00;0.00;;;;;;;;;;4936069;29;20238;-58
2022/04/07 11:13:42;;;;;;;0.40;0.07;;;;;;;;;;4926830;29;20671;-59
2022/04/07 11:16:15;;;;;;;0.30;0.20;;;;;;;;;;4933280;29;20215;-59
2022/04/07 11:18:49;;;;;;;0.00;0.00;;;;;;;;;;4945550;29;20199;-59
2022/04/07 11:21:18;;;;;;;0.00;0.00;;;;;;;;;;4946470;29;20278;-59
2022/04/07 11:23:46;;;;;;;0.00;0.00;;;;;;;;;;4946040;28;20252;-59
2022/04/07 11:26:13;;;;;;;1.33;0.00;;;;;;;;;;4931917;29;20231;-59
2022/04/07 11:28:41;;;;;;;0.00;0.00;;;;;;;;;;4944357;29;20239;-57
2022/04/07 11:31:08;;;;;;;0.08;0.08;;;;;;;;;;4939817;28;20417;-58
2022/04/07 11:33:39;;;;;;;0.10;0.10;;;;;;;;;;4940400;29;20204;-59
2022/04/07 11:36:13;;;;;;;0.03;0.03;;;;;;;;;;4940950;28;20306;-59
2022/04/07 11:38:44;;;;;;;0.00;0.00;;;;;;;;;;4945174;29;20206;-58
2022/04/07 11:41:12;;;;;;;0.00;0.00;;;;;;;;;;4943637;29;20203;-59
2022/04/07 11:43:39;;;;;;;0.00;0.00;;;;;;;;;;4946057;29;20270;-59
2022/04/07 11:46:06;;;;;;;1.70;0.00;;;;;;;;;;4941429;28;20219;-58
2022/04/07 11:48:34;;;;;;;0.20;0.03;;;;;;;;;;4933601;29;20227;-57
2022/04/07 11:51:01;;;;;;;0.00;0.00;;;;;;;;;;4944264;29;20576;-58
2022/04/07 11:53:29;;;;;;;0.10;0.10;;;;;;;;;;4946147;29;20777;-58
2022/04/07 11:56:12;;;;;;;0.00;0.00;;;;;;;;;;4932928;29;20675;-58
2022/04/07 11:58:39;;;;;;;0.00;0.00;;;;;;;;;;4933392;29;20307;-58
2022/04/07 12:01:11;;;;;;;0.00;0.00;;;;;;;;;;4944683;29;20873;-59
2022/04/07 12:03:38;;;;;;;0.00;0.00;;;;;;;;;;4946428;29;20697;-59
2022/04/07 12:06:05;;;;;;;0.00;0.00;;;;;;;;;;4941691;29;20208;-59
2022/04/07 12:08:32;;;;;;;0.00;0.00;;;;;;;;;;4941007;29;20659;-59
2022/04/07 12:11:01;;;;;;;0.20;0.10;;;;;;;;;;4930362;29;20211;-59
2022/04/07 12:13:28;;;;;;;0.00;0.00;;;;;;;;;;4930657;29;20278;-59
2022/04/07 12:15:55;;;;;;;1.85;0.10;;;;;;;;;;4944714;29;20235;-58
2022/04/07 12:18:26;;;;;;;1.45;0.10;;;;;;;;;;4945193;29;20748;-58
2022/04/07 12:20:59;;;;;;;2.13;0.20;;;;;;;;;;4945034;28;20306;-59
2022/04/07 12:23:27;;;;;;;0.00;0.00;;;;;;;;;;4930920;29;20226;-58
2022/04/07 12:25:59;;;;;;;0.00;0.00;;;;;;;;;;4929979;29;20654;-59
2022/04/07 12:28:33;;;;;;;0.00;0.00;;;;;;;;;;4938421;28;20245;-58
2022/04/07 12:31:00;;;;;;;0.00;0.00;;;;;;;;;;4949100;29;21049;-58
2022/04/07 12:33:37;;;;;;;0.00;0.00;;;;;;;;;;4945090;29;20203;-59
2022/04/07 12:36:04;;;;;;;1.60;0.22;;;;;;;;;;4929872;29;20223;-59
2022/04/07 12:38:31;;;;;;;0.60;0.10;;;;;;;;;;4933590;29;20211;-58
2022/04/07 12:41:09;;;;;;;0.00;0.00;;;;;;;;;;4944057;29;20936;-58
2022/04/07 12:43:50;;;;;;;0.00;0.00;;;;;;;;;;4940500;29;20763;-58
2022/04/07 12:46:17;;;;;;;0.10;0.05;;;;;;;;;;4949189;29;20237;-58
2022/04/07 12:49:04;;;;;;;0.15;0.00;;;;;;;;;;4936926;29;20239;-59
2022/04/07 12:51:32;;;;;;;6.10;0.00;;;;;;;;;;4943135;29;20211;-59
2022/04/07 12:54:16;;;;;;;0.08;0.08;;;;;;;;;;4931202;29;20216;-59
2022/04/07 12:56:44;;;;;;;0.73;0.03;;;;;;;;;;4946308;29;20218;-59
2022/04/07 12:59:14;;;;;;;0.00;0.00;;;;;;;;;;4948031;29;20720;-59
2022/04/07 13:01:45;;;;;;;0.10;0.10;;;;;;;;;;4939981;29;20206;-58
2022/04/07 13:04:12;;;;;;;0.10;0.10;;;;;;;;;;4939967;29;20210;-59
2022/04/07 13:06:39;;;;;;;0.70;0.20;;;;;;;;;;4948193;29;20224;-59
2022/04/07 13:09:07;;;;;;;0.00;0.00;;;;;;;;;;4932265;29;20741;-59
2022/04/07 13:11:36;;;;;;;0.00;0.00;;;;;;;;;;4928473;29;20215;-58
2022/04/07 13:14:04;;;;;;;0.00;0.00;;;;;;;;;;4936136;29;20215;-59
2022/04/07 13:16:32;;;;;;;1.35;0.13;;;;;;;;;;4947725;29;20246;-59
2022/04/07 13:19:00;;;;;;;0.10;0.10;;;;;;;;;;4948115;29;20321;-59
2022/04/07 13:21:27;;;;;;;0.05;0.05;;;;;;;;;;4947573;28;20231;-59
2022/04/07 13:23:54;;;;;;;0.32;0.08;;;;;;;;;;4943525;29;20232;-60
2022/04/07 13:26:22;;;;;;;1.40;0.10;;;;;;;;;;4928779;29;20224;-59
2022/04/07 13:28:49;;;;;;;0.10;0.10;;;;;;;;;;4929870;29;20246;-59
2022/04/07 13:31:16;;;;;;;2.13;0.13;;;;;;;;;;4928588;29;20311;-59
2022/04/07 13:33:45;;;;;;;0.17;0.00;;;;;;;;;;4931039;29;20373;-59
2022/04/07 13:36:12;;;;;;;0.07;0.07;;;;;;;;;;4947532;29;20215;-59
2022/04/07 13:38:39;;;;;;;0.00;0.00;;;;;;;;;;4947815;29;20211;-59
2022/04/07 13:41:07;;;;;;;0.10;0.10;;;;;;;;;;4947679;29;20215;-59
2022/04/07 13:43:34;;;;;;;0.73;0.10;;;;;;;;;;4947556;29;20556;-60
2022/04/07 13:46:01;;;;;;;0.03;0.03;;;;;;;;;;4946398;29;20223;-59
2022/04/07 13:48:29;;;;;;;0.00;0.00;;;;;;;;;;4947207;29;20319;-59
2022/04/07 13:50:57;;;;;;;0.00;0.00;;;;;;;;;;4928768;29;20294;-59
2022/04/07 13:53:24;;;;;;;0.20;0.20;;;;;;;;;;4927914;29;20230;-59
2022/04/07 13:55:52;;;;;;;0.10;0.10;;;;;;;;;;4940426;29;20222;-59
2022/04/07 13:58:19;;;;;;;0.63;0.20;;;;;;;;;;4935207;29;20687;-59
2022/04/07 14:00:46;;;;;;;0.10;0.10;;;;;;;;;;4928491;29;20212;-60
2022/04/07 14:03:14;;;;;;;0.50;0.10;;;;;;;;;;4928171;29;20223;-60
2022/04/07 14:05:41;;;;;;;1.30;0.30;;;;;;;;;;4935927;29;20525;-59
2022/04/07 14:08:13;;;;;;;2.20;0.13;;;;;;;;;;4947017;29;20214;-60
2022/04/07 14:10:40;;;;;;;0.73;0.10;;;;;;;;;;4933675;29;20208;-59
2022/04/07 14:13:07;;;;;;;0.10;0.10;;;;;;;;;;4927993;29;20211;-59
2022/04/07 14:15:35;;;;;;;0.10;0.10;;;;;;;;;;4932352;29;20238;-59
2022/04/07 14:18:02;;;;;;;1.20;0.10;;;;;;;;;;4927790;29;20224;-59
2022/04/07 14:20:29;;;;;;;0.10;0.10;;;;;;;;;;4927531;29;20215;-59
2022/04/07 14:22:56;;;;;;;0.53;0.20;;;;;;;;;;4927312;29;20220;-60
2022/04/07 14:25:24;;;;;;;0.10;0.10;;;;;;;;;;4938495;29;20628;-61
2022/04/07 14:27:52;;;;;;;0.20;0.20;;;;;;;;;;4927510;29;20601;-58
2022/04/07 14:30:19;;;;;;;0.07;0.07;;;;;;;;;;4927436;29;20239;-59
2022/04/07 14:32:47;;;;;;;0.83;0.10;;;;;;;;;;4926647;29;20215;-59
2022/04/07 14:35:14;;;;;;;0.20;0.20;;;;;;;;;;4931860;29;20218;-59
2022/04/07 14:37:41;;;;;;;0.17;0.17;;;;;;;;;;4928530;29;20207;-59
2022/04/07 14:40:09;;;;;;;2.40;0.15;;;;;;;;;;4927283;29;20270;-60
2022/04/07 14:42:37;;;;;;;0.30;0.25;;;;;;;;;;4944341;28;20261;-60
2022/04/07 14:45:05;;;;;;;0.10;0.10;;;;;;;;;;4935458;29;20215;-59
2022/04/07 14:47:32;;;;;;;0.13;0.10;;;;;;;;;;4955458;28;20213;-59